createdAt,value
2018-07-03T07:36:42.559Z,22.27
2018-07-03T07:39:13.894Z,21.87
2018-07-03T07:41:44.022Z,19.85
2018-07-03T07:44:14.294Z,19.98
2018-07-03T07:46:44.467Z,22.67
2018-07-03T07:49:14.806Z,22.40
2018-07-03T07:51:46.647Z,21.95
2018-07-03T07:54:16.717Z,21.70
2018-07-03T07:56:46.775Z,22.62
2018-07-03T07:59:17.052Z,21.73
2018-07-03T08:01:46.967Z,23.55
2018-07-03T08:04:18.216Z,22.98
2018-07-03T08:06:47.846Z,22.32
2018-07-03T08:09:18.125Z,23.67
2018-07-03T08:11:48.211Z,24.10
2018-07-03T08:14:18.327Z,23.07
2018-07-03T08:16:48.690Z,21.75
2018-07-03T08:19:18.846Z,21.80
2018-07-03T08:21:48.945Z,21.07
2018-07-03T08:24:19.047Z,21.02
2018-07-03T08:26:49.269Z,19.25
2018-07-03T08:29:19.484Z,22.07
2018-07-03T08:31:49.552Z,19.52
2018-07-03T08:34:20.629Z,19.85
2018-07-03T08:36:50.795Z,21.25
2018-07-03T08:39:21.150Z,19.05
2018-07-03T08:41:51.617Z,17.92
2018-07-03T08:44:21.900Z,19.60
2018-07-03T08:46:52.420Z,17.87
2018-07-03T08:49:22.771Z,17.25
2018-07-03T08:51:53.384Z,18.15
2018-07-03T08:54:23.630Z,17.12
2018-07-03T08:56:53.587Z,18.02
2018-07-03T08:59:24.396Z,16.60
2018-07-03T09:01:54.532Z,15.93
2018-07-03T09:04:25.285Z,16.02
2018-07-03T09:06:55.964Z,15.95
2018-07-03T09:09:26.741Z,16.07
2018-07-03T09:11:57.494Z,17.05
2018-07-03T09:14:28.183Z,16.35
2018-07-03T09:17:02.943Z,14.87
2018-07-03T09:19:32.464Z,15.53
2018-07-03T09:22:02.486Z,15.18
2018-07-03T09:24:33.031Z,14.98
2018-07-03T09:27:03.935Z,15.83
2018-07-03T09:29:34.931Z,14.87
2018-07-03T09:32:05.352Z,14.70
2018-07-03T09:34:36.653Z,14.85
2018-07-03T09:37:08.555Z,15.03
2018-07-03T09:39:39.157Z,14.83
2018-07-03T09:42:09.858Z,15.23
2018-07-03T09:44:40.376Z,15.38
2018-07-03T09:47:10.262Z,15.18
2018-07-03T09:49:40.308Z,15.40
2018-07-03T09:52:10.897Z,14.35
2018-07-03T09:54:41.182Z,14.45
2018-07-03T09:57:11.760Z,13.45
2018-07-03T10:01:11.334Z,13.85
2018-07-03T10:03:41.466Z,13.60
2018-07-03T10:06:11.753Z,13.50
2018-07-03T10:08:42.114Z,14.03
2018-07-03T10:11:12.800Z,15.03
2018-07-03T10:13:43.117Z,14.78
2018-07-03T10:16:13.246Z,14.53
2018-07-03T10:18:43.647Z,14.05
2018-07-03T10:21:14.099Z,14.20
2018-07-03T10:23:44.501Z,14.95
2018-07-03T10:26:14.523Z,14.25
2018-07-03T10:28:44.695Z,14.63
2018-07-03T10:31:15.054Z,15.40
2018-07-03T10:33:45.361Z,15.08
2018-07-03T10:36:15.633Z,14.00
2018-07-03T10:38:46.199Z,13.18
2018-07-03T10:41:16.877Z,13.18
2018-07-03T10:43:47.150Z,13.40
2018-07-03T10:46:17.341Z,13.05
2018-07-03T10:48:47.575Z,12.47
2018-07-03T10:51:17.794Z,12.03
2018-07-03T10:53:48.129Z,11.00
2018-07-03T10:56:17.682Z,11.93
2018-07-03T10:58:47.861Z,12.78
2018-07-03T11:01:18.039Z,12.33
2018-07-03T11:03:48.747Z,11.75
2018-07-03T11:06:19.001Z,12.37
2018-07-03T11:08:49.593Z,12.93
2018-07-03T11:11:19.888Z,12.90
2018-07-03T11:13:50.143Z,12.25
2018-07-03T11:16:20.448Z,12.33
2018-07-03T11:18:51.285Z,12.35
2018-07-03T11:21:21.473Z,11.53
2018-07-03T11:23:51.645Z,12.43
2018-07-03T11:26:21.775Z,13.90
2018-07-03T11:28:52.070Z,12.93
2018-07-03T11:31:22.341Z,11.15
2018-07-03T11:33:52.585Z,12.53
2018-07-03T11:36:23.005Z,10.68
2018-07-03T11:38:53.041Z,11.48
2018-07-03T11:41:23.457Z,11.33
2018-07-03T11:43:53.832Z,11.93
2018-07-03T11:46:24.524Z,12.05
2018-07-03T11:48:54.854Z,11.73
2018-07-03T11:51:25.506Z,11.15
2018-07-03T11:53:55.850Z,11.83
2018-07-03T11:56:26.414Z,11.30
2018-07-03T11:58:56.852Z,10.98
2018-07-03T12:01:27.488Z,10.55
2018-07-03T12:03:57.670Z,11.43
2018-07-03T12:06:27.947Z,10.48
2018-07-03T12:08:58.340Z,9.55
2018-07-03T12:11:28.914Z,10.00
2018-07-03T12:13:58.639Z,9.83
2018-07-03T12:16:28.586Z,8.98
2018-07-03T12:18:59.493Z,9.85
2018-07-03T12:21:30.396Z,9.10
2018-07-03T12:24:00.799Z,8.40
2018-07-03T12:26:32.465Z,8.50
2018-07-03T12:29:02.706Z,8.85
2018-07-03T12:31:33.235Z,8.70
2018-07-03T12:34:03.670Z,7.92
2018-07-03T12:36:33.596Z,7.17
2018-07-03T12:39:05.130Z,8.10
2018-07-03T12:41:35.495Z,6.92
2018-07-03T12:44:05.825Z,6.85
2018-07-03T12:46:35.774Z,5.85
2018-07-03T12:49:05.817Z,6.42
2018-07-03T12:51:35.857Z,6.05
2018-07-03T12:54:06.487Z,6.05
2018-07-03T12:56:36.716Z,6.67
2018-07-03T12:59:07.325Z,6.50
2018-07-03T13:01:37.992Z,5.78
2018-07-03T13:04:08.302Z,6.78
2018-07-03T13:06:38.499Z,5.37
2018-07-03T13:09:08.944Z,5.67
2018-07-03T13:11:39.266Z,6.03
2018-07-03T13:14:09.562Z,5.75
2018-07-03T13:16:40.133Z,5.85
2018-07-03T13:19:10.350Z,6.05
2018-07-03T13:21:40.580Z,5.50
2018-07-03T13:24:10.898Z,5.78
2018-07-03T13:26:41.340Z,5.50
2018-07-03T13:29:11.808Z,5.37
2018-07-03T13:31:41.917Z,5.12
2018-07-03T13:34:12.049Z,6.10
2018-07-03T13:36:42.145Z,5.67
2018-07-03T13:39:12.707Z,6.05
2018-07-03T13:41:43.069Z,5.90
2018-07-03T13:44:13.600Z,5.72
2018-07-03T13:46:43.874Z,5.40
2018-07-03T13:49:13.988Z,6.40
2018-07-03T13:51:44.220Z,5.50
2018-07-03T13:54:14.701Z,5.62
2018-07-03T13:56:44.991Z,4.95
2018-07-03T13:59:15.457Z,5.08
2018-07-03T14:01:45.665Z,5.22
2018-07-03T14:04:15.894Z,5.08
2018-07-03T14:06:46.282Z,6.15
2018-07-03T14:09:16.228Z,5.30
2018-07-03T14:11:46.330Z,6.00
2018-07-03T14:14:16.324Z,6.83
2018-07-03T14:16:46.115Z,5.37
2018-07-03T14:19:15.669Z,5.58
2018-07-03T14:21:45.675Z,5.97
2018-07-03T14:24:16.104Z,7.50
2018-07-03T14:26:46.254Z,6.47
2018-07-03T14:29:16.407Z,6.65
2018-07-03T14:31:48.016Z,5.67
2018-07-03T14:34:23.747Z,6.20
2018-07-03T14:36:55.296Z,5.22
2018-07-03T14:39:25.895Z,5.72
2018-07-03T14:41:56.350Z,6.15
2018-07-03T14:44:28.858Z,6.05
2018-07-03T14:46:59.298Z,5.08
2018-07-03T14:49:31.042Z,5.72
2018-07-03T14:52:01.087Z,6.20
2018-07-03T14:54:31.338Z,5.42
2018-07-03T14:57:01.804Z,5.95
2018-07-03T14:59:32.792Z,5.15
2018-07-03T15:02:04.208Z,5.10
